sensor_id;sensor_type;location;lat;lon;timestamp;pressure;altitude;pressure_sealevel;temperature;humidity
29385;BME280;16367;48.736;9.218;2024-02-21T00:00:46;-23333.91;;;5.23;100.00
29385;BME280;16367;48.736;9.218;2024-02-21T00:02:50;-23333.91;;;5.23;100.00
29385;BME280;16367;48.736;9.218;2024-02-21T00:04:53;-23331.84;;;5.16;100.00
29385;BME280;16367;48.736;9.218;2024-02-21T00:06:56;-23331.69;;;5.16;100.00
29385;BME280;16367;48.736;9.218;2024-02-21T00:08:59;-23335.34;;;5.27;100.00
29385;BME280;16367;48.736;9.218;2024-02-21T00:11:05;-23335.66;;;5.28;100.00
29385;BME280;16367;48.736;9.218;2024-02-21T00:13:10;-23335.66;;;5.28;100.00
29385;BME280;16367;48.736;9.218;2024-02-21T00:15:12;-23333.59;;;5.22;100.00
29385;BME280;16367;48.736;9.218;2024-02-21T00:17:15;-23334.56;;;5.25;100.00
29385;BME280;16367;48.736;9.218;2024-02-21T00:19:18;-23335.66;;;5.28;100.00
29385;BME280;16367;48.736;9.218;2024-02-21T00:21:21;-23334.88;;;5.26;100.00
29385;BME280;16367;48.736;9.218;2024-02-21T00:23:24;-23333.44;;;5.21;100.00
29385;BME280;16367;48.736;9.218;2024-02-21T00:25:27;-23338.38;;;5.37;100.00
29385;BME280;16367;48.736;9.218;2024-02-21T00:27:31;-23334.41;;;5.24;100.00
29385;BME280;16367;48.736;9.218;2024-02-21T00:29:38;-23333.75;;;5.22;100.00
29385;BME280;16367;48.736;9.218;2024-02-21T00:31:43;-23333.75;;;5.22;100.00
29385;BME280;16367;48.736;9.218;2024-02-21T00:33:46;-23334.06;;;5.23;100.00
29385;BME280;16367;48.736;9.218;2024-02-21T00:35:49;-23334.72;;;5.25;100.00
29385;BME280;16367;48.736;9.218;2024-02-21T00:37:52;-23334.72;;;5.25;100.00
29385;BME280;16367;48.736;9.218;2024-02-21T00:39:55;-23333.28;;;5.21;100.00
29385;BME280;16367;48.736;9.218;2024-02-21T00:41:57;-23334.72;;;5.25;100.00
29385;BME280;16367;48.736;9.218;2024-02-21T00:44:00;-23335.19;;;5.27;100.00
29385;BME280;16367;48.736;9.218;2024-02-21T00:46:05;-23335.19;;;5.27;100.00
29385;BME280;16367;48.736;9.218;2024-02-21T00:48:07;-23335.66;;;5.28;100.00
29385;BME280;16367;48.736;9.218;2024-02-21T00:50:11;-23336.94;;;5.33;100.00
29385;BME280;16367;48.736;9.218;2024-02-21T00:52:12;-23335.50;;;5.28;100.00
29385;BME280;16367;48.736;9.218;2024-02-21T00:54:15;-23335.66;;;5.28;100.00
29385;BME280;16367;48.736;9.218;2024-02-21T00:56:18;-23339.16;;;5.40;100.00
29385;BME280;16367;48.736;9.218;2024-02-21T00:58:23;-23342.03;;;5.49;100.00
29385;BME280;16367;48.736;9.218;2024-02-21T01:00:28;-23337.75;;;5.35;100.00
29385;BME280;16367;48.736;9.218;2024-02-21T01:02:33;-23339.16;;;5.40;100.00
29385;BME280;16367;48.736;9.218;2024-02-21T01:04:38;-23338.84;;;5.39;100.00
29385;BME280;16367;48.736;9.218;2024-02-21T01:06:40;-23337.25;;;5.34;100.00
29385;BME280;16367;48.736;9.218;2024-02-21T01:08:46;-23341.72;;;5.48;100.00
29385;BME280;16367;48.736;9.218;2024-02-21T01:10:49;-23339.50;;;5.41;100.00
29385;BME280;16367;48.736;9.218;2024-02-21T01:12:51;-23337.25;;;5.34;100.00
29385;BME280;16367;48.736;9.218;2024-02-21T01:14:54;-23337.09;;;5.33;100.00
29385;BME280;16367;48.736;9.218;2024-02-21T01:16:57;-23336.63;;;5.32;100.00
29385;BME280;16367;48.736;9.218;2024-02-21T01:19:00;-23337.91;;;5.36;100.00
29385;BME280;16367;48.736;9.218;2024-02-21T01:21:04;-23336.94;;;5.33;100.00
29385;BME280;16367;48.736;9.218;2024-02-21T01:23:08;-23336.63;;;5.32;100.00
29385;BME280;16367;48.736;9.218;2024-02-21T01:25:11;-23335.97;;;5.29;100.00
29385;BME280;16367;48.736;9.218;2024-02-21T01:27:14;-23333.44;;;5.21;100.00
29385;BME280;16367;48.736;9.218;2024-02-21T01:29:16;-23333.13;;;5.20;100.00
29385;BME280;16367;48.736;9.218;2024-02-21T01:31:21;-23333.13;;;5.20;100.00
29385;BME280;16367;48.736;9.218;2024-02-21T01:33:27;-23333.44;;;5.21;100.00
29385;BME280;16367;48.736;9.218;2024-02-21T01:35:34;-23334.88;;;5.26;100.00
29385;BME280;16367;48.736;9.218;2024-02-21T01:37:36;-23333.28;;;5.21;100.00
29385;BME280;16367;48.736;9.218;2024-02-21T01:39:40;-23333.44;;;5.21;100.00
29385;BME280;16367;48.736;9.218;2024-02-21T01:41:43;-23334.72;;;5.25;100.00
29385;BME280;16367;48.736;9.218;2024-02-21T01:43:45;-23335.03;;;5.26;100.00
29385;BME280;16367;48.736;9.218;2024-02-21T01:45:49;-23333.75;;;5.22;100.00
29385;BME280;16367;48.736;9.218;2024-02-21T01:47:57;-23333.91;;;5.23;100.00
29385;BME280;16367;48.736;9.218;2024-02-21T01:50:00;-23335.97;;;5.29;100.00
29385;BME280;16367;48.736;9.218;2024-02-21T01:52:05;-23335.34;;;5.27;100.00
29385;BME280;16367;48.736;9.218;2024-02-21T01:54:08;-23335.66;;;5.28;100.00
29385;BME280;16367;48.736;9.218;2024-02-21T01:56:12;-23331.84;;;5.16;100.00
29385;BME280;16367;48.736;9.218;2024-02-21T01:58:16;-23332.31;;;5.18;100.00
29385;BME280;16367;48.736;9.218;2024-02-21T02:00:18;-23332.97;;;5.20;100.00
29385;BME280;16367;48.736;9.218;2024-02-21T02:02:22;-23333.44;;;5.21;100.00
29385;BME280;16367;48.736;9.218;2024-02-21T02:04:26;-23333.44;;;5.21;100.00
29385;BME280;16367;48.736;9.218;2024-02-21T02:06:28;-23332.16;;;5.17;100.00
29385;BME280;16367;48.736;9.218;2024-02-21T02:08:35;-23334.56;;;5.25;100.00
29385;BME280;16367;48.736;9.218;2024-02-21T02:10:40;-23335.34;;;5.27;100.00
29385;BME280;16367;48.736;9.218;2024-02-21T02:12:46;-23333.44;;;5.21;100.00
29385;BME280;16367;48.736;9.218;2024-02-21T02:14:57;-23331.84;;;5.16;100.00
29385;BME280;16367;48.736;9.218;2024-02-21T02:17:00;-23333.28;;;5.21;100.00
29385;BME280;16367;48.736;9.218;2024-02-21T02:19:05;-23333.13;;;5.20;100.00
29385;BME280;16367;48.736;9.218;2024-02-21T02:21:12;-23336.94;;;5.33;100.00
29385;BME280;16367;48.736;9.218;2024-02-21T02:23:22;-23332.31;;;5.18;100.00
29385;BME280;16367;48.736;9.218;2024-02-21T02:25:26;-23335.81;;;5.29;100.00
29385;BME280;16367;48.736;9.218;2024-02-21T02:27:29;-23333.28;;;5.21;100.00
29385;BME280;16367;48.736;9.218;2024-02-21T02:29:34;-23333.44;;;5.21;100.00
29385;BME280;16367;48.736;9.218;2024-02-21T02:31:37;-23332.81;;;5.19;100.00
29385;BME280;16367;48.736;9.218;2024-02-21T02:33:42;-23336.63;;;5.32;100.00
29385;BME280;16367;48.736;9.218;2024-02-21T02:35:45;-23335.97;;;5.29;100.00
29385;BME280;16367;48.736;9.218;2024-02-21T02:37:48;-23336.94;;;5.33;100.00
29385;BME280;16367;48.736;9.218;2024-02-21T02:39:56;-23337.56;;;5.35;100.00
29385;BME280;16367;48.736;9.218;2024-02-21T02:42:01;-23337.75;;;5.35;100.00
29385;BME280;16367;48.736;9.218;2024-02-21T02:44:04;-23339.50;;;5.41;100.00
29385;BME280;16367;48.736;9.218;2024-02-21T02:46:07;-23340.44;;;5.44;100.00
29385;BME280;16367;48.736;9.218;2024-02-21T02:48:10;-23341.72;;;5.48;100.00
29385;BME280;16367;48.736;9.218;2024-02-21T02:50:13;-23339.50;;;5.41;100.00
29385;BME280;16367;48.736;9.218;2024-02-21T02:52:18;-23338.84;;;5.39;100.00
29385;BME280;16367;48.736;9.218;2024-02-21T02:54:21;-23339.81;;;5.42;100.00
29385;BME280;16367;48.736;9.218;2024-02-21T02:56:27;-23339.00;;;5.39;100.00
29385;BME280;16367;48.736;9.218;2024-02-21T02:58:30;-23340.13;;;5.43;100.00
29385;BME280;16367;48.736;9.218;2024-02-21T03:00:32;-23341.25;;;5.46;100.00
29385;BME280;16367;48.736;9.218;2024-02-21T03:02:39;-23339.81;;;5.42;100.00
29385;BME280;16367;48.736;9.218;2024-02-21T03:04:42;-23341.88;;;5.48;100.00
29385;BME280;16367;48.736;9.218;2024-02-21T03:06:44;-23340.75;;;5.45;100.00
29385;BME280;16367;48.736;9.218;2024-02-21T03:08:46;-23342.19;;;5.49;100.00
29385;BME280;16367;48.736;9.218;2024-02-21T03:10:50;-23343.63;;;5.54;100.00
29385;BME280;16367;48.736;9.218;2024-02-21T03:12:54;-23342.81;;;5.51;100.00
29385;BME280;16367;48.736;9.218;2024-02-21T03:14:57;-23341.41;;;5.47;100.00
29385;BME280;16367;48.736;9.218;2024-02-21T03:17:02;-23342.03;;;5.49;100.00
29385;BME280;16367;48.736;9.218;2024-02-21T03:19:04;-23339.81;;;5.42;100.00
29385;BME280;16367;48.736;9.218;2024-02-21T03:21:07;-23341.06;;;5.46;100.00
29385;BME280;16367;48.736;9.218;2024-02-21T03:23:10;-23340.75;;;5.45;100.00
29385;BME280;16367;48.736;9.218;2024-02-21T03:25:13;-23341.06;;;5.46;100.00
29385;BME280;16367;48.736;9.218;2024-02-21T03:27:16;-23339.00;;;5.39;100.00
29385;BME280;16367;48.736;9.218;2024-02-21T03:29:21;-23340.91;;;5.45;100.00
29385;BME280;16367;48.736;9.218;2024-02-21T03:31:23;-23341.72;;;5.48;100.00
29385;BME280;16367;48.736;9.218;2024-02-21T03:33:32;-23343.47;;;5.53;100.00
29385;BME280;16367;48.736;9.218;2024-02-21T03:35:35;-23343.00;;;5.52;100.00
29385;BME280;16367;48.736;9.218;2024-02-21T03:37:38;-23343.63;;;5.54;100.00
29385;BME280;16367;48.736;9.218;2024-02-21T03:39:40;-23342.34;;;5.50;100.00
29385;BME280;16367;48.736;9.218;2024-02-21T03:41:43;-23339.81;;;5.42;100.00
29385;BME280;16367;48.736;9.218;2024-02-21T03:43:46;-23338.22;;;5.37;100.00
29385;BME280;16367;48.736;9.218;2024-02-21T03:45:50;-23339.97;;;5.42;100.00
29385;BME280;16367;48.736;9.218;2024-02-21T03:47:53;-23341.25;;;5.46;100.00
29385;BME280;16367;48.736;9.218;2024-02-21T03:49:55;-23339.50;;;5.41;100.00
29385;BME280;16367;48.736;9.218;2024-02-21T03:51:59;-23336.63;;;5.32;100.00
29385;BME280;16367;48.736;9.218;2024-02-21T03:54:01;-23335.03;;;5.26;100.00
29385;BME280;16367;48.736;9.218;2024-02-21T03:56:07;-23335.97;;;5.29;100.00
29385;BME280;16367;48.736;9.218;2024-02-21T03:58:10;-23336.78;;;5.32;100.00
29385;BME280;16367;48.736;9.218;2024-02-21T04:00:14;-23337.25;;;5.34;100.00
29385;BME280;16367;48.736;9.218;2024-02-21T04:02:20;-23335.66;;;5.28;100.00
29385;BME280;16367;48.736;9.218;2024-02-21T04:04:24;-23334.06;;;5.23;100.00
29385;BME280;16367;48.736;9.218;2024-02-21T04:06:30;-23336.78;;;5.32;100.00
29385;BME280;16367;48.736;9.218;2024-02-21T04:08:32;-23339.31;;;5.40;100.00
29385;BME280;16367;48.736;9.218;2024-02-21T04:10:35;-23338.38;;;5.37;100.00
29385;BME280;16367;48.736;9.218;2024-02-21T04:12:43;-23337.25;;;5.34;100.00
29385;BME280;16367;48.736;9.218;2024-02-21T04:14:45;-23338.84;;;5.39;100.00
29385;BME280;16367;48.736;9.218;2024-02-21T04:16:48;-23339.50;;;5.41;100.00
29385;BME280;16367;48.736;9.218;2024-02-21T04:18:55;-23339.50;;;5.41;100.00
29385;BME280;16367;48.736;9.218;2024-02-21T04:20:58;-23339.81;;;5.42;100.00
29385;BME280;16367;48.736;9.218;2024-02-21T04:23:01;-23340.59;;;5.44;100.00
29385;BME280;16367;48.736;9.218;2024-02-21T04:25:04;-23339.81;;;5.42;100.00
29385;BME280;16367;48.736;9.218;2024-02-21T04:27:07;-23337.91;;;5.36;100.00
29385;BME280;16367;48.736;9.218;2024-02-21T04:29:10;-23337.56;;;5.35;100.00
29385;BME280;16367;48.736;9.218;2024-02-21T04:31:13;-23337.56;;;5.35;100.00
29385;BME280;16367;48.736;9.218;2024-02-21T04:33:16;-23335.81;;;5.29;100.00
29385;BME280;16367;48.736;9.218;2024-02-21T04:35:20;-23335.19;;;5.27;100.00
29385;BME280;16367;48.736;9.218;2024-02-21T04:37:24;-23333.75;;;5.22;100.00
29385;BME280;16367;48.736;9.218;2024-02-21T04:39:26;-23331.22;;;5.14;100.00
29385;BME280;16367;48.736;9.218;2024-02-21T04:41:29;-23331.84;;;5.16;100.00
29385;BME280;16367;48.736;9.218;2024-02-21T04:43:32;-23329.94;;;5.10;100.00
29385;BME280;16367;48.736;9.218;2024-02-21T04:45:35;-23329.47;;;5.09;100.00
29385;BME280;16367;48.736;9.218;2024-02-21T04:47:38;-23328.66;;;5.06;100.00
29385;BME280;16367;48.736;9.218;2024-02-21T04:49:40;-23326.91;;;5.01;100.00
29385;BME280;16367;48.736;9.218;2024-02-21T04:51:45;-23328.34;;;5.05;100.00
29385;BME280;16367;48.736;9.218;2024-02-21T04:53:50;-23326.91;;;5.01;100.00
29385;BME280;16367;48.736;9.218;2024-02-21T04:55:53;-23328.19;;;5.05;100.00
29385;BME280;16367;48.736;9.218;2024-02-21T04:57:56;-23328.19;;;5.05;100.00
29385;BME280;16367;48.736;9.218;2024-02-21T04:59:58;-23329.63;;;5.09;100.00
29385;BME280;16367;48.736;9.218;2024-02-21T05:02:02;-23329.63;;;5.09;100.00
29385;BME280;16367;48.736;9.218;2024-02-21T05:04:06;-23328.03;;;5.04;100.00
29385;BME280;16367;48.736;9.218;2024-02-21T05:06:09;-23327.56;;;5.03;100.00
29385;BME280;16367;48.736;9.218;2024-02-21T05:08:12;-23329.63;;;5.09;100.00
29385;BME280;16367;48.736;9.218;2024-02-21T05:10:15;-23330.25;;;5.11;100.00
29385;BME280;16367;48.736;9.218;2024-02-21T05:12:19;-23325.16;;;4.95;100.00
29385;BME280;16367;48.736;9.218;2024-02-21T05:14:22;-23324.84;;;4.94;100.00
29385;BME280;16367;48.736;9.218;2024-02-21T05:16:23;-23326.44;;;4.99;100.00
29385;BME280;16367;48.736;9.218;2024-02-21T05:18:26;-23325.81;;;4.97;100.00
29385;BME280;16367;48.736;9.218;2024-02-21T05:20:30;-23326.13;;;4.98;100.00
29385;BME280;16367;48.736;9.218;2024-02-21T05:22:32;-23327.06;;;5.01;100.00
29385;BME280;16367;48.736;9.218;2024-02-21T05:24:38;-23328.03;;;5.04;100.00
29385;BME280;16367;48.736;9.218;2024-02-21T05:26:41;-23328.66;;;5.06;100.00
29385;BME280;16367;48.736;9.218;2024-02-21T05:28:44;-23329.47;;;5.09;100.00
29385;BME280;16367;48.736;9.218;2024-02-21T05:30:46;-23328.03;;;5.04;100.00
29385;BME280;16367;48.736;9.218;2024-02-21T05:32:49;-23327.72;;;5.03;100.00
29385;BME280;16367;48.736;9.218;2024-02-21T05:34:52;-23325.16;;;4.95;100.00
29385;BME280;16367;48.736;9.218;2024-02-21T05:36:55;-23323.91;;;4.91;100.00
29385;BME280;16367;48.736;9.218;2024-02-21T05:38:57;-23320.06;;;4.79;100.00
29385;BME280;16367;48.736;9.218;2024-02-21T05:41:03;-23320.06;;;4.79;100.00
29385;BME280;16367;48.736;9.218;2024-02-21T05:43:08;-23321.03;;;4.82;100.00
29385;BME280;16367;48.736;9.218;2024-02-21T05:45:11;-23323.09;;;4.89;100.00
29385;BME280;16367;48.736;9.218;2024-02-21T05:47:14;-23323.25;;;4.89;100.00
29385;BME280;16367;48.736;9.218;2024-02-21T05:49:17;-23322.94;;;4.88;100.00
29385;BME280;16367;48.736;9.218;2024-02-21T05:51:20;-23323.25;;;4.89;100.00
29385;BME280;16367;48.736;9.218;2024-02-21T05:53:23;-23321.66;;;4.84;100.00
29385;BME280;16367;48.736;9.218;2024-02-21T05:55:25;-23320.72;;;4.81;100.00
29385;BME280;16367;48.736;9.218;2024-02-21T05:57:31;-23321.03;;;4.82;100.00
29385;BME280;16367;48.736;9.218;2024-02-21T05:59:33;-23319.91;;;4.79;100.00
29385;BME280;16367;48.736;9.218;2024-02-21T06:01:38;-23319.59;;;4.78;100.00
29385;BME280;16367;48.736;9.218;2024-02-21T06:03:43;-23320.88;;;4.82;100.00
29385;BME280;16367;48.736;9.218;2024-02-21T06:05:46;-23321.81;;;4.85;100.00
29385;BME280;16367;48.736;9.218;2024-02-21T06:07:49;-23317.69;;;4.72;100.00
29385;BME280;16367;48.736;9.218;2024-02-21T06:09:51;-23317.84;;;4.72;100.00
29385;BME280;16367;48.736;9.218;2024-02-21T06:11:53;-23317.53;;;4.71;100.00
29385;BME280;16367;48.736;9.218;2024-02-21T06:13:57;-23318.31;;;4.74;100.00
29385;BME280;16367;48.736;9.218;2024-02-21T06:16:00;-23318.47;;;4.74;100.00
29385;BME280;16367;48.736;9.218;2024-02-21T06:18:04;-23318.63;;;4.75;100.00
29385;BME280;16367;48.736;9.218;2024-02-21T06:20:07;-23316.25;;;4.67;100.00
29385;BME280;16367;48.736;9.218;2024-02-21T06:22:10;-23314.66;;;4.62;100.00
29385;BME280;16367;48.736;9.218;2024-02-21T06:24:16;-23316.56;;;4.68;100.00
29385;BME280;16367;48.736;9.218;2024-02-21T06:26:18;-23316.41;;;4.68;100.00
29385;BME280;16367;48.736;9.218;2024-02-21T06:28:20;-23319.75;;;4.78;100.00
29385;BME280;16367;48.736;9.218;2024-02-21T06:30:26;-23318.97;;;4.76;100.00
29385;BME280;16367;48.736;9.218;2024-02-21T06:32:29;-23316.88;;;4.69;100.00
29385;BME280;16367;48.736;9.218;2024-02-21T06:34:32;-23315.78;;;4.66;100.00
29385;BME280;16367;48.736;9.218;2024-02-21T06:36:35;-23315.59;;;4.65;100.00
29385;BME280;16367;48.736;9.218;2024-02-21T06:38:38;-23317.53;;;4.71;100.00
29385;BME280;16367;48.736;9.218;2024-02-21T06:40:41;-23319.44;;;4.77;100.00
29385;BME280;16367;48.736;9.218;2024-02-21T06:42:44;-23321.03;;;4.82;100.00
29385;BME280;16367;48.736;9.218;2024-02-21T06:44:47;-23324.53;;;4.93;100.00
29385;BME280;16367;48.736;9.218;2024-02-21T06:46:51;-23324.53;;;4.93;100.00
29385;BME280;16367;48.736;9.218;2024-02-21T06:48:53;-23320.53;;;4.81;100.00
29385;BME280;16367;48.736;9.218;2024-02-21T06:50:58;-23324.69;;;4.94;100.00
29385;BME280;16367;48.736;9.218;2024-02-21T06:53:00;-23325.31;;;4.96;100.00
29385;BME280;16367;48.736;9.218;2024-02-21T06:55:04;-23321.81;;;4.85;100.00
29385;BME280;16367;48.736;9.218;2024-02-21T06:57:06;-23324.69;;;4.94;100.00
29385;BME280;16367;48.736;9.218;2024-02-21T06:59:09;-23329.63;;;5.09;100.00
29385;BME280;16367;48.736;9.218;2024-02-21T07:01:12;-23335.03;;;5.26;100.00
29385;BME280;16367;48.736;9.218;2024-02-21T07:03:17;-23336.63;;;5.32;100.00
29385;BME280;16367;48.736;9.218;2024-02-21T07:05:19;-23342.03;;;5.49;100.00
29385;BME280;16367;48.736;9.218;2024-02-21T07:07:21;-23341.41;;;5.47;100.00
29385;BME280;16367;48.736;9.218;2024-02-21T07:09:24;-23342.66;;;5.51;100.00
29385;BME280;16367;48.736;9.218;2024-02-21T07:11:27;-23345.69;;;5.60;99.68
29385;BME280;16367;48.736;9.218;2024-02-21T07:13:31;-23349.03;;;5.71;99.47
29385;BME280;16367;48.736;9.218;2024-02-21T07:15:34;-23346.66;;;5.63;99.25
29385;BME280;16367;48.736;9.218;2024-02-21T07:17:37;-23348.09;;;5.68;99.46
29385;BME280;16367;48.736;9.218;2024-02-21T07:19:41;-23349.66;;;5.73;99.17
29385;BME280;16367;48.736;9.218;2024-02-21T07:21:43;-23349.66;;;5.73;98.73
29385;BME280;16367;48.736;9.218;2024-02-21T07:23:46;-23352.69;;;5.82;98.91
29385;BME280;16367;48.736;9.218;2024-02-21T07:25:49;-23352.06;;;5.80;98.73
29385;BME280;16367;48.736;9.218;2024-02-21T07:27:53;-23353.50;;;5.85;98.19
29385;BME280;16367;48.736;9.218;2024-02-21T07:29:56;-23357.16;;;5.96;99.30
29385;BME280;16367;48.736;9.218;2024-02-21T07:31:58;-23358.44;;;6.00;98.57
29385;BME280;16367;48.736;9.218;2024-02-21T07:34:01;-23360.66;;;6.08;98.15
29385;BME280;16367;48.736;9.218;2024-02-21T07:36:07;-23362.56;;;6.14;98.18
29385;BME280;16367;48.736;9.218;2024-02-21T07:38:10;-23359.22;;;6.03;98.21
29385;BME280;16367;48.736;9.218;2024-02-21T07:40:17;-23366.22;;;6.25;97.44
29385;BME280;16367;48.736;9.218;2024-02-21T07:42:20;-23369.72;;;6.36;97.78
29385;BME280;16367;48.736;9.218;2024-02-21T07:44:23;-23368.28;;;6.32;97.14
29385;BME280;16367;48.736;9.218;2024-02-21T07:46:25;-23368.44;;;6.32;97.09
29385;BME280;16367;48.736;9.218;2024-02-21T07:48:28;-23372.56;;;6.45;96.82
29385;BME280;16367;48.736;9.218;2024-02-21T07:50:35;-23374.50;;;6.51;96.78
29385;BME280;16367;48.736;9.218;2024-02-21T07:52:40;-23376.22;;;6.57;96.80
29385;BME280;16367;48.736;9.218;2024-02-21T07:54:42;-23378.31;;;6.63;96.12
29385;BME280;16367;48.736;9.218;2024-02-21T07:56:48;-23377.34;;;6.60;96.82
29385;BME280;16367;48.736;9.218;2024-02-21T07:58:50;-23382.13;;;6.75;96.33
29385;BME280;16367;48.736;9.218;2024-02-21T08:00:53;-23387.53;;;6.93;95.59
29385;BME280;16367;48.736;9.218;2024-02-21T08:02:56;-23390.69;;;7.03;95.25
29385;BME280;16367;48.736;9.218;2024-02-21T08:04:59;-23400.53;;;7.34;94.65
29385;BME280;16367;48.736;9.218;2024-02-21T08:07:02;-23397.53;;;7.24;93.55
29385;BME280;16367;48.736;9.218;2024-02-21T08:09:07;-23402.44;;;7.40;93.47
29385;BME280;16367;48.736;9.218;2024-02-21T08:11:08;-23404.34;;;7.46;92.77
29385;BME280;16367;48.736;9.218;2024-02-21T08:13:11;-23405.94;;;7.51;91.56
29385;BME280;16367;48.736;9.218;2024-02-21T08:15:14;-23404.84;;;7.47;91.46
29385;BME280;16367;48.736;9.218;2024-02-21T08:17:17;-23403.56;;;7.43;91.09
29385;BME280;16367;48.736;9.218;2024-02-21T08:19:20;-23410.41;;;7.65;90.78
29385;BME280;16367;48.736;9.218;2024-02-21T08:21:23;-23402.44;;;7.40;90.66
29385;BME280;16367;48.736;9.218;2024-02-21T08:23:26;-23408.16;;;7.58;91.41
29385;BME280;16367;48.736;9.218;2024-02-21T08:25:30;-23401.50;;;7.37;90.57
29385;BME280;16367;48.736;9.218;2024-02-21T08:27:33;-23408.34;;;7.59;90.89
29385;BME280;16367;48.736;9.218;2024-02-21T08:29:36;-23409.75;;;7.63;90.38
29385;BME280;16367;48.736;9.218;2024-02-21T08:31:39;-23415.16;;;7.80;89.79
29385;BME280;16367;48.736;9.218;2024-02-21T08:33:42;-23417.06;;;7.86;89.87
29385;BME280;16367;48.736;9.218;2024-02-21T08:35:47;-23413.88;;;7.76;89.25
29385;BME280;16367;48.736;9.218;2024-02-21T08:37:50;-23411.97;;;7.70;89.45
29385;BME280;16367;48.736;9.218;2024-02-21T08:39:53;-23415.63;;;7.82;88.32
29385;BME280;16367;48.736;9.218;2024-02-21T08:41:59;-23418.81;;;7.92;88.49
29385;BME280;16367;48.736;9.218;2024-02-21T08:44:02;-23412.31;;;7.71;87.77
29385;BME280;16367;48.736;9.218;2024-02-21T08:46:05;-23417.06;;;7.86;88.42
29385;BME280;16367;48.736;9.218;2024-02-21T08:48:07;-23415.47;;;7.81;87.74
29385;BME280;16367;48.736;9.218;2024-02-21T08:50:10;-23420.41;;;7.97;87.66
29385;BME280;16367;48.736;9.218;2024-02-21T08:52:28;-23412.63;;;7.72;88.31
29385;BME280;16367;48.736;9.218;2024-02-21T08:54:31;-23418.03;;;7.89;87.66
29385;BME280;16367;48.736;9.218;2024-02-21T08:56:34;-23414.22;;;7.77;88.59
29385;BME280;16367;48.736;9.218;2024-02-21T08:58:39;-23415.78;;;7.82;87.26
29385;BME280;16367;48.736;9.218;2024-02-21T09:00:42;-23419.28;;;7.93;87.74
29385;BME280;16367;48.736;9.218;2024-02-21T09:02:45;-23411.19;;;7.68;87.40
29385;BME280;16367;48.736;9.218;2024-02-21T09:04:48;-23415.16;;;7.80;87.69
29385;BME280;16367;48.736;9.218;2024-02-21T09:06:51;-23426.59;;;8.16;87.22
29385;BME280;16367;48.736;9.218;2024-02-21T09:08:56;-23420.72;;;7.98;86.60
29385;BME280;16367;48.736;9.218;2024-02-21T09:10:59;-23423.56;;;8.07;86.84
29385;BME280;16367;48.736;9.218;2024-02-21T09:13:03;-23421.19;;;7.99;87.10
29385;BME280;16367;48.736;9.218;2024-02-21T09:15:08;-23419.28;;;7.93;86.58
29385;BME280;16367;48.736;9.218;2024-02-21T09:17:11;-23426.13;;;8.15;86.71
29385;BME280;16367;48.736;9.218;2024-02-21T09:19:16;-23433.09;;;8.37;85.85
29385;BME280;16367;48.736;9.218;2024-02-21T09:21:19;-23424.69;;;8.10;85.63
29385;BME280;16367;48.736;9.218;2024-02-21T09:23:24;-23431.03;;;8.31;84.81
29385;BME280;16367;48.736;9.218;2024-02-21T09:25:27;-23426.44;;;8.16;83.74
29385;BME280;16367;48.736;9.218;2024-02-21T09:27:30;-23434.06;;;8.40;83.31
29385;BME280;16367;48.736;9.218;2024-02-21T09:29:33;-23439.28;;;8.57;82.86
29385;BME280;16367;48.736;9.218;2024-02-21T09:31:37;-23430.09;;;8.27;82.62
29385;BME280;16367;48.736;9.218;2024-02-21T09:33:41;-23449.59;;;8.89;82.28
29385;BME280;16367;48.736;9.218;2024-02-21T09:35:44;-23453.09;;;9.00;79.53
29385;BME280;16367;48.736;9.218;2024-02-21T09:37:46;-23452.63;;;8.99;78.99
29385;BME280;16367;48.736;9.218;2024-02-21T09:39:52;-23451.34;;;8.95;79.79
29385;BME280;16367;48.736;9.218;2024-02-21T09:41:59;-23461.81;;;9.28;79.09
29385;BME280;16367;48.736;9.218;2024-02-21T09:44:01;-23472.91;;;9.63;77.91
29385;BME280;16367;48.736;9.218;2024-02-21T09:46:04;-23471.03;;;9.57;77.22
29385;BME280;16367;48.736;9.218;2024-02-21T09:48:23;-23471.03;;;9.57;76.13
29385;BME280;16367;48.736;9.218;2024-02-21T09:50:34;-23457.06;;;9.13;77.28
29385;BME280;16367;48.736;9.218;2024-02-21T09:52:37;-23464.03;;;9.35;76.78
29385;BME280;16367;48.736;9.218;2024-02-21T09:54:41;-23470.06;;;9.54;76.72
29385;BME280;16367;48.736;9.218;2024-02-21T09:56:46;-23463.09;;;9.32;76.99
29385;BME280;16367;48.736;9.218;2024-02-21T09:58:49;-23476.88;;;9.76;76.83
29385;BME280;16367;48.736;9.218;2024-02-21T10:00:52;-23490.38;;;10.19;75.28
29385;BME280;16367;48.736;9.218;2024-02-21T10:02:56;-23504.31;;;10.63;72.49
29385;BME280;16367;48.736;9.218;2024-02-21T10:05:00;-23497.34;;;10.41;71.36
29385;BME280;16367;48.736;9.218;2024-02-21T10:07:05;-23492.25;;;10.25;70.36
29385;BME280;16367;48.736;9.218;2024-02-21T10:09:09;-23486.25;;;10.06;71.90
29385;BME280;16367;48.736;9.218;2024-02-21T10:11:22;-23485.59;;;10.04;73.01
29385;BME280;16367;48.736;9.218;2024-02-21T10:13:27;-23494.66;;;10.32;71.56
29385;BME280;16367;48.736;9.218;2024-02-21T10:15:33;-23508.75;;;10.77;71.00
29385;BME280;16367;48.736;9.218;2024-02-21T10:17:35;-23486.56;;;10.07;71.28
29385;BME280;16367;48.736;9.218;2024-02-21T10:19:42;-23492.44;;;10.25;71.47
29385;BME280;16367;48.736;9.218;2024-02-21T10:21:59;-23520.16;;;11.13;69.41
29385;BME280;16367;48.736;9.218;2024-02-21T10:24:04;-23504.47;;;10.64;68.77
29385;BME280;16367;48.736;9.218;2024-02-21T10:26:07;-23516.19;;;11.01;67.95
29385;BME280;16367;48.736;9.218;2024-02-21T10:28:12;-23488.31;;;10.12;69.31
29385;BME280;16367;48.736;9.218;2024-02-21T10:30:16;-23506.22;;;10.69;69.97
29385;BME280;16367;48.736;9.218;2024-02-21T10:32:19;-23483.72;;;9.98;69.74
29385;BME280;16367;48.736;9.218;2024-02-21T10:34:24;-23484.66;;;10.01;70.13
29385;BME280;16367;48.736;9.218;2024-02-21T10:36:30;-23487.50;;;10.10;70.69
29385;BME280;16367;48.736;9.218;2024-02-21T10:38:35;-23507.63;;;10.74;69.47
29385;BME280;16367;48.736;9.218;2024-02-21T10:40:36;-23487.19;;;10.09;69.26
29385;BME280;16367;48.736;9.218;2024-02-21T10:42:43;-23488.47;;;10.13;67.86
29385;BME280;16367;48.736;9.218;2024-02-21T10:44:48;-23493.22;;;10.28;69.21
29385;BME280;16367;48.736;9.218;2024-02-21T10:46:53;-23516.81;;;11.03;67.63
29385;BME280;16367;48.736;9.218;2024-02-21T10:49:04;-23522.03;;;11.19;66.24